Time;durP1;ratioP1;P1;durP2;ratioP2;P2;SDS_P1;SDS_P2;PMS_P1;PMS_P2;Temp;Humidity;BMP_temperature;BMP_pressure;BME280_temperature;BME280_humidity;BME280_pressure;Samples;Min_cycle;Max_cycle;Signal;HPM_P1;HPM_P2
2020/12/07 00:01:07;;;;;;;37.20;20.90;;;;;;;10.06;57.99;99979.75;5078013;28;20369;-81
2020/12/07 00:03:33;;;;;;;35.20;20.65;;;;;;;10.06;57.83;99974.34;5077480;28;20290;-82
2020/12/07 00:05:59;;;;;;;31.48;19.17;;;;;;;9.98;57.99;99967.66;5077564;28;20489;-82
2020/12/07 00:08:24;;;;;;;30.48;19.45;;;;;;;9.94;58.32;99958.88;5096335;28;20470;-83
2020/12/07 00:10:49;;;;;;;37.38;21.05;;;;;;;9.99;58.43;99964.00;5096268;28;20059;-82
2020/12/07 00:13:17;;;;;;;33.22;19.55;;;;;;;10.18;57.47;99955.69;5095954;28;20520;-82
2020/12/07 00:15:42;;;;;;;32.13;19.65;;;;;;;10.23;57.25;99946.31;5078057;28;20102;-82
2020/12/07 00:18:07;;;;;;;36.08;20.55;;;;;;;10.16;57.34;99939.56;5096122;28;20040;-82
2020/12/07 00:20:33;;;;;;;31.17;19.73;;;;;;;10.36;57.50;99942.91;5096494;28;20028;-82
2020/12/07 00:22:58;;;;;;;35.70;20.47;;;;;;;9.89;58.62;99953.75;5078044;28;20329;-82
2020/12/07 00:25:23;;;;;;;38.83;21.13;;;;;;;9.50;59.65;99948.84;5095918;28;20888;-81
2020/12/07 00:27:49;;;;;;;38.40;21.42;;;;;;;9.67;59.71;99945.16;5096259;28;20461;-81
2020/12/07 00:30:14;;;;;;;36.35;19.98;;;;;;;10.10;58.42;99937.22;5077945;28;20044;-82
2020/12/07 00:32:39;;;;;;;35.03;19.35;;;;;;;9.87;58.85;99934.06;5096108;28;20036;-82
2020/12/07 00:35:05;;;;;;;34.70;21.43;;;;;;;9.86;59.05;99926.91;5077658;28;20412;-81
2020/12/07 00:37:30;;;;;;;34.08;20.73;;;;;;;10.01;58.86;99918.84;5096140;28;20309;-81
2020/12/07 00:39:56;;;;;;;34.55;21.08;;;;;;;9.87;59.47;99912.47;5077437;28;20071;-81
2020/12/07 00:42:21;;;;;;;28.93;19.33;;;;;;;10.23;58.14;99897.66;5077414;28;20062;-82
2020/12/07 00:44:46;;;;;;;31.45;19.23;;;;;;;10.22;57.93;99895.03;5077229;28;20378;-82
2020/12/07 00:47:12;;;;;;;31.92;20.15;;;;;;;10.13;58.00;99888.38;5076984;28;20040;-82
2020/12/07 00:49:39;;;;;;;31.95;19.17;;;;;;;10.10;58.26;99877.78;5095162;28;20485;-81
2020/12/07 00:52:05;;;;;;;30.52;19.83;;;;;;;9.84;58.78;99872.09;5095361;28;20047;-82
2020/12/07 00:54:30;;;;;;;31.67;19.85;;;;;;;9.78;59.21;99868.91;5077327;28;20047;-82
2020/12/07 00:56:57;;;;;;;34.50;19.70;;;;;;;10.06;58.43;99873.50;5095247;28;20024;-82
2020/12/07 00:59:23;;;;;;;31.95;19.85;;;;;;;10.14;58.09;99865.78;5076973;28;20477;-82
2020/12/07 01:01:50;;;;;;;;;;;;;;;9.95;58.69;99871.47;5076502;28;20035;-82
2020/12/07 01:04:15;;;;;;;30.73;18.50;;;;;;;9.81;59.25;99866.88;5076755;28;19911;-81
2020/12/07 01:06:44;;;;;;;35.10;19.77;;;;;;;9.87;58.94;99861.13;5076625;28;20031;-82
2020/12/07 01:09:10;;;;;;;32.83;19.58;;;;;;;9.94;58.76;99859.75;5077300;28;20547;-82
2020/12/07 01:11:35;;;;;;;34.97;20.13;;;;;;;9.61;60.44;99865.38;5095287;28;20028;-81
2020/12/07 01:14:00;;;;;;;36.80;20.27;;;;;;;10.07;58.69;99865.31;5077365;28;20619;-81
2020/12/07 01:16:26;;;;;;;33.90;20.42;;;;;;;10.12;58.53;99859.63;5076803;28;20462;-83
2020/12/07 01:18:51;;;;;;;32.30;19.02;;;;;;;10.24;58.27;99866.09;5077011;28;20079;-82
2020/12/07 01:21:18;;;;;;;31.95;19.63;;;;;;;10.16;58.51;99866.56;5076700;28;20033;-82
2020/12/07 01:23:46;;;;;;;29.63;18.63;;;;;;;10.15;58.67;99866.69;5076899;28;20039;-81
2020/12/07 01:26:12;;;;;;;31.88;19.15;;;;;;;10.16;58.45;99869.28;5077253;28;20032;-82
2020/12/07 01:28:38;;;;;;;33.97;19.75;;;;;;;10.23;58.60;99859.81;5076580;28;20040;-81
2020/12/07 01:31:03;;;;;;;35.28;20.42;;;;;;;10.02;59.25;99870.09;5095138;28;20040;-81
2020/12/07 01:33:29;;;;;;;30.20;19.02;;;;;;;10.31;58.52;99875.56;5076518;28;20028;-81
2020/12/07 01:35:55;;;;;;;33.05;19.75;;;;;;;10.22;58.73;99879.72;5094490;28;20440;-82
2020/12/07 01:38:21;;;;;;;29.92;19.77;;;;;;;10.34;58.49;99877.22;5076241;28;20028;-81
2020/12/07 01:40:46;;;;;;;33.63;19.23;;;;;;;10.23;58.82;99881.44;5076662;28;20024;-82
2020/12/07 01:43:12;;;;;;;33.17;18.73;;;;;;;10.41;58.32;99873.19;5094414;28;20119;-82
2020/12/07 01:45:37;;;;;;;28.50;18.95;;;;;;;10.37;58.39;99866.22;5094599;28;20067;-82
2020/12/07 01:48:03;;;;;;;33.05;18.92;;;;;;;10.26;59.25;99870.44;5093890;28;20047;-82
2020/12/07 01:50:28;;;;;;;29.10;17.13;;;;;;;10.57;58.44;99857.72;5094262;28;20485;-81
2020/12/07 01:52:54;;;;;;;33.17;18.42;;;;;;;9.88;60.83;99865.53;5076071;28;20032;-81
2020/12/07 01:55:19;;;;;;;32.47;17.90;;;;;;;9.86;61.01;99862.06;5094046;28;20563;-81
2020/12/07 01:57:45;;;;;;;30.13;17.27;;;;;;;9.32;62.46;99861.69;5094146;28;20374;-81
2020/12/07 02:00:10;;;;;;;24.30;14.70;;;;;;;9.21;63.50;99857.78;5075804;28;20036;-81
2020/12/07 02:02:36;;;;;;;26.40;17.02;;;;;;;9.23;63.10;99857.69;5094314;28;20743;-81
2020/12/07 02:05:01;;;;;;;23.92;15.80;;;;;;;9.92;61.92;99850.91;5075876;28;20032;-80
2020/12/07 02:07:27;;;;;;;24.50;14.93;;;;;;;9.61;62.77;99857.28;5075953;28;20040;-80
2020/12/07 02:09:52;;;;;;;31.85;17.05;;;;;;;10.02;61.50;99853.88;5094025;28;20070;-81
2020/12/07 02:12:17;;;;;;;23.77;14.80;;;;;;;9.55;63.14;99857.63;5093367;28;20036;-81
2020/12/07 02:14:42;;;;;;;26.35;16.33;;;;;;;9.22;64.31;99846.06;5096635;28;20031;-80
2020/12/07 02:17:08;;;;;;;26.00;15.70;;;;;;;9.97;61.91;99847.91;5078402;28;20024;-79
2020/12/07 02:19:33;;;;;;;25.92;14.18;;;;;;;9.89;62.41;99839.41;5096498;28;20089;-80
2020/12/07 02:21:59;;;;;;;22.67;14.00;;;;;;;9.98;62.74;99832.56;5096984;28;20119;-81
2020/12/07 02:24:24;;;;;;;24.40;13.93;;;;;;;9.73;63.62;99825.97;5096571;28;20119;-80
2020/12/07 02:26:49;;;;;;;23.00;12.50;;;;;;;9.51;63.59;99821.88;5096628;28;20036;-80
2020/12/07 02:29:15;;;;;;;18.77;11.75;;;;;;;9.32;65.02;99821.22;5078422;28;20485;-81
2020/12/07 02:31:40;;;;;;;19.33;11.52;;;;;;;9.57;64.69;99829.59;5096377;28;20036;-80
2020/12/07 02:34:05;;;;;;;19.45;11.43;;;;;;;9.31;65.00;99822.16;5096232;28;20028;-81
2020/12/07 02:36:31;;;;;;;18.65;10.75;;;;;;;9.47;64.44;99808.63;5078117;28;20035;-80
2020/12/07 02:38:56;;;;;;;18.13;10.82;;;;;;;9.36;65.21;99807.44;5077562;28;20052;-80
2020/12/07 02:41:21;;;;;;;18.55;10.15;;;;;;;9.27;66.38;99801.72;5077538;28;20032;-80
2020/12/07 02:43:47;;;;;;;15.30;10.57;;;;;;;9.53;64.96;99800.16;5095837;28;20650;-80
2020/12/07 02:46:12;;;;;;;18.15;9.85;;;;;;;10.14;63.57;99802.78;5077566;28;20043;-80
2020/12/07 02:48:38;;;;;;;16.00;9.93;;;;;;;9.91;64.40;99800.53;5095826;28;20038;-80
2020/12/07 02:51:03;;;;;;;12.90;8.60;;;;;;;9.59;64.83;99805.19;5077361;28;20401;-79
2020/12/07 02:53:28;;;;;;;12.33;8.03;;;;;;;9.40;65.24;99800.03;5095548;28;20782;-79
2020/12/07 02:55:53;;;;;;;11.80;8.50;;;;;;;9.66;63.91;99790.38;5095640;28;20409;-79
2020/12/07 02:58:19;;;;;;;13.13;7.32;;;;;;;9.67;64.39;99780.44;5095523;28;20416;-80
2020/12/07 03:00:45;;;;;;;12.07;7.32;;;;;;;10.26;62.40;99774.97;5077265;28;20493;-80
2020/12/07 03:03:10;;;;;;;10.68;7.10;;;;;;;10.23;62.45;99780.56;5095358;28;20493;-80
2020/12/07 03:05:36;;;;;;;10.25;7.13;;;;;;;10.17;62.78;99779.09;5095237;28;20040;-79
2020/12/07 03:08:02;;;;;;;10.07;6.25;;;;;;;10.14;62.73;99781.16;5076985;28;20054;-80
2020/12/07 03:10:27;;;;;;;9.93;5.20;;;;;;;9.98;62.78;99773.13;5076915;28;20494;-80
2020/12/07 03:12:52;;;;;;;9.23;5.38;;;;;;;10.07;62.85;99770.72;5094745;28;20462;-81
2020/12/07 03:15:18;;;;;;;8.60;5.00;;;;;;;10.02;62.91;99771.97;5076799;28;20036;-81
2020/12/07 03:17:43;;;;;;;8.88;4.80;;;;;;;10.31;62.02;99774.66;5076498;28;20073;-80
2020/12/07 03:20:08;;;;;;;7.35;4.93;;;;;;;10.78;60.48;99776.19;5059169;28;20048;-81
2020/12/07 03:22:34;;;;;;;5.90;4.50;;;;;;;10.56;60.52;99774.84;5094674;28;20111;-81
2020/12/07 03:25:00;;;;;;;6.95;3.97;;;;;;;10.56;60.22;99774.00;5093797;28;20040;-81
2020/12/07 03:27:25;;;;;;;7.43;4.60;;;;;;;10.67;60.49;99773.28;5094470;28;20063;-80
2020/12/07 03:29:51;;;;;;;5.65;4.53;;;;;;;10.66;60.53;99769.72;5076740;28;20118;-80
2020/12/07 03:32:16;;;;;;;7.50;4.85;;;;;;;10.50;61.17;99761.72;5076264;28;20028;-80
2020/12/07 03:34:41;;;;;;;7.73;5.17;;;;;;;10.50;61.38;99759.03;5076453;28;20028;-81
2020/12/07 03:37:07;;;;;;;5.30;4.73;;;;;;;10.52;61.21;99758.94;5076622;28;20282;-81
2020/12/07 03:39:32;;;;;;;6.63;5.07;;;;;;;10.54;61.48;99759.72;5093978;28;20293;-80
2020/12/07 03:41:57;;;;;;;9.00;5.55;;;;;;;10.78;60.49;99762.66;5094192;28;20043;-81
2020/12/07 03:44:23;;;;;;;5.78;4.95;;;;;;;10.72;60.86;99757.63;5093976;28;20110;-80
2020/12/07 03:46:48;;;;;;;8.18;4.70;;;;;;;10.33;61.74;99756.53;5093892;28;20134;-81
2020/12/07 03:49:13;;;;;;;5.72;4.20;;;;;;;10.03;63.05;99752.97;5075452;28;20032;-81
2020/12/07 03:51:39;;;;;;;8.75;4.38;;;;;;;9.83;64.55;99750.63;5075974;28;20044;-81
2020/12/07 03:54:04;;;;;;;6.55;4.70;;;;;;;10.03;64.06;99749.41;5076050;28;20040;-82
2020/12/07 03:56:29;;;;;;;7.43;4.63;;;;;;;10.45;62.50;99750.38;5093916;28;20035;-80
2020/12/07 03:58:55;;;;;;;8.65;4.72;;;;;;;10.41;62.42;99738.00;5075902;28;20297;-81
2020/12/07 04:01:20;;;;;;;7.27;5.00;;;;;;;9.93;63.43;99741.88;5075913;28;20044;-80
2020/12/07 04:03:49;;;;;;;9.15;5.90;;;;;;;9.93;64.47;99741.88;5076032;28;20326;-81
2020/12/07 04:06:28;;;;;;;10.00;6.00;;;;;;;9.74;65.32;99733.19;5094140;28;20461;-80
2020/12/07 04:08:53;;;;;;;9.05;6.47;;;;;;;9.66;65.32;99728.25;5093995;28;20024;-80
2020/12/07 04:11:18;;;;;;;7.37;6.30;;;;;;;9.09;67.50;99742.50;5094043;28;20392;-80
2020/12/07 04:13:44;;;;;;;9.88;7.07;;;;;;;9.53;66.85;99744.34;5075910;28;20369;-80
2020/12/07 04:16:09;;;;;;;14.07;7.43;;;;;;;9.77;65.96;99743.78;5075736;28;20043;-80
2020/12/07 04:18:34;;;;;;;10.48;6.68;;;;;;;9.58;66.32;99747.59;5093194;28;20044;-80
2020/12/07 04:21:00;;;;;;;12.68;6.28;;;;;;;9.36;67.43;99753.47;5075628;28;20078;-79
2020/12/07 04:23:30;;;;;;;7.57;5.80;;;;;;;9.64;66.39;99740.09;5075536;28;20067;-79
2020/12/07 04:25:56;;;;;;;6.45;3.40;;;;;;;9.10;67.16;99744.22;5093578;28;20064;-80
2020/12/07 04:28:21;;;;;;;;;;;;;;;8.80;68.16;99734.28;5076022;28;20032;-79
2020/12/07 04:30:47;;;;;;;2.53;2.33;;;;;;;9.11;67.64;99740.56;5093758;28;19954;-80
2020/12/07 04:33:12;;;;;;;4.50;2.50;;;;;;;9.10;66.92;99752.28;5075626;28;20028;-79
2020/12/07 04:35:38;;;;;;;4.97;2.83;;;;;;;9.38;65.86;99747.97;5092889;28;20082;-80
2020/12/07 04:38:03;;;;;;;3.95;1.88;;;;;;;9.53;65.66;99746.16;5075553;28;20286;-80
2020/12/07 04:40:29;;;;;;;2.28;1.30;;;;;;;9.02;67.06;99747.34;5093803;28;20051;-80
2020/12/07 04:42:55;;;;;;;2.10;1.45;;;;;;;9.28;65.98;99746.78;5075312;28;20036;-80
2020/12/07 04:45:21;;;;;;;6.55;2.22;;;;;;;9.45;65.51;99738.53;5075091;28;20028;-80
2020/12/07 04:47:50;;;;;;;4.22;2.22;;;;;;;9.93;64.68;99744.59;5093407;28;20044;-80
2020/12/07 04:50:15;;;;;;;2.95;1.25;;;;;;;9.70;64.76;99735.19;5075272;28;20051;-80
2020/12/07 04:52:41;;;;;;;2.88;1.23;;;;;;;9.58;65.06;99734.09;5093621;28;20051;-80
2020/12/07 04:55:07;;;;;;;2.85;1.33;;;;;;;9.96;64.34;99735.38;5075374;28;20035;-80
2020/12/07 04:57:32;;;;;;;1.60;1.20;;;;;;;10.16;63.86;99734.16;5074827;28;20040;-80
2020/12/07 04:59:58;;;;;;;1.80;1.55;;;;;;;9.61;65.08;99748.41;5074585;28;20461;-80
2020/12/07 05:02:25;;;;;;;4.82;1.70;;;;;;;9.33;66.10;99744.66;5074880;28;20043;-79
2020/12/07 05:04:53;;;;;;;4.53;1.30;;;;;;;9.03;67.12;99738.31;5075102;28;20036;-80
2020/12/07 05:07:20;;;;;;;6.07;1.80;;;;;;;9.59;65.62;99726.91;5074814;28;20082;-80
2020/12/07 05:09:46;;;;;;;4.93;2.17;;;;;;;8.82;67.86;99716.16;5074821;28;20036;-80
2020/12/07 05:12:22;;;;;;;5.28;2.50;;;;;;;9.68;66.22;99712.81;5075242;28;20119;-80
2020/12/07 05:14:47;;;;;;;8.73;3.17;;;;;;;10.18;64.50;99715.13;5075337;28;20028;-79
2020/12/07 05:17:16;;;;;;;3.70;2.90;;;;;;;9.65;66.29;99712.16;5073705;28;20527;-79
2020/12/07 05:19:44;;;;;;;7.35;3.53;;;;;;;9.61;66.52;99722.25;5073449;28;20042;-78
2020/12/07 05:22:16;;;;;;;10.55;4.32;;;;;;;9.71;67.11;99712.63;5074008;28;20024;-78
2020/12/07 05:24:46;;;;;;;7.18;4.30;;;;;;;10.45;64.13;99713.38;5053742;28;20074;-79
2020/12/07 05:27:16;;;;;;;10.25;4.22;;;;;;;10.74;63.80;99724.09;5091209;28;20028;-79
2020/12/07 05:29:51;;;;;;;6.30;4.70;;;;;;;10.67;63.43;99713.78;5089605;28;20481;-79
2020/12/07 05:32:17;;;;;;;8.77;5.45;;;;;;;9.93;66.23;99712.16;5092362;28;20039;-80
2020/12/07 05:34:42;;;;;;;10.52;6.28;;;;;;;9.43;68.19;99708.06;5075507;28;20028;-81
2020/12/07 05:37:07;;;;;;;12.32;5.88;;;;;;;9.70;67.50;99705.47;5075133;28;20032;-80
2020/12/07 05:39:33;;;;;;;11.82;5.85;;;;;;;9.69;67.67;99708.28;5092973;28;20040;-79
2020/12/07 05:42:01;;;;;;;8.45;6.88;;;;;;;9.39;68.98;99714.59;5094406;28;20036;-81
2020/12/07 05:44:26;;;;;;;11.07;5.88;;;;;;;9.42;67.99;99714.44;5093109;28;20119;-79
2020/12/07 05:46:55;;;;;;;9.98;6.28;;;;;;;9.99;66.60;99701.91;5092774;28;20066;-79
2020/12/07 05:49:25;;;;;;;8.35;5.13;;;;;;;9.82;66.76;99703.84;5062939;28;20059;-79
2020/12/07 05:52:00;;;;;;;11.65;5.95;;;;;;;9.39;67.03;99702.00;5074188;28;20101;-80
2020/12/07 05:54:26;;;;;;;11.25;6.10;;;;;;;9.85;66.88;99709.06;5078087;28;20032;-80
2020/12/07 05:56:55;;;;;;;6.72;6.03;;;;;;;9.56;67.79;99700.94;5094843;28;20326;-81
2020/12/07 05:59:30;;;;;;;10.27;6.15;;;;;;;9.71;66.65;99699.13;5075553;28;20044;-81
2020/12/07 06:01:58;;;;;;;11.02;5.53;;;;;;;9.23;68.54;99693.94;5096011;28;20058;-81
2020/12/07 06:04:25;;;;;;;9.43;6.15;;;;;;;9.46;67.86;99688.09;5096161;28;20090;-81
2020/12/07 06:06:59;;;;;;;14.25;5.60;;;;;;;10.11;65.19;99676.81;5094928;28;20388;-82
2020/12/07 06:09:28;;;;;;;7.70;5.40;;;;;;;9.87;66.15;99672.03;5077858;28;20397;-83
2020/12/07 06:12:01;;;;;;;7.68;5.97;;;;;;;10.16;64.61;99663.88;5077618;28;20056;-81
2020/12/07 06:14:33;;;;;;;8.98;5.50;;;;;;;9.70;66.09;99664.13;5075242;28;20036;-82
2020/12/07 06:16:59;;;;;;;8.80;5.75;;;;;;;10.42;64.14;99664.91;5078033;28;20032;-83
2020/12/07 06:19:24;;;;;;;5.63;5.13;;;;;;;10.47;63.69;99656.47;5095982;28;20051;-82
2020/12/07 06:21:55;;;;;;;7.43;5.70;;;;;;;10.40;63.86;99647.91;5096293;28;20083;-85
2020/12/07 06:24:21;;;;;;;10.90;5.45;;;;;;;10.05;65.13;99652.88;5096660;28;20039;-85
2020/12/07 06:27:04;;;;;;;9.18;5.70;;;;;;;10.26;64.50;99653.31;5097283;28;20043;-83
2020/12/07 06:29:30;;;;;;;8.93;5.75;;;;;;;9.69;66.09;99655.16;5077690;28;20119;-84
2020/12/07 06:32:04;;;;;;;7.55;6.13;;;;;;;9.85;65.71;99663.13;5079713;28;20056;-85
2020/12/07 06:34:42;;;;;;;8.73;5.65;;;;;;;9.96;65.37;99677.78;5079104;28;20032;-87
2020/12/07 06:37:12;;;;;;;8.32;4.95;;;;;;;10.53;63.68;99688.50;5097328;28;20085;-87
2020/12/07 06:39:43;;;;;;;9.75;4.78;;;;;;;9.83;65.58;99685.78;5100349;28;20077;-87
2020/12/07 06:42:09;;;;;;;7.25;5.45;;;;;;;9.89;65.79;99689.00;5097324;28;20035;-83
2020/12/07 06:44:34;;;;;;;11.60;6.15;;;;;;;9.83;65.71;99688.50;5095614;28;20040;-88
2020/12/07 06:47:17;;;;;;;6.22;5.53;;;;;;;10.21;64.75;99690.59;5077698;28;20087;-88
2020/12/07 06:49:56;;;;;;;9.02;6.20;;;;;;;9.69;66.39;99703.75;5077520;28;20032;-87
2020/12/07 06:52:24;;;;;;;11.45;6.72;;;;;;;9.22;68.09;99713.81;5077344;28;20037;-83
2020/12/07 06:55:10;;;;;;;7.90;7.10;;;;;;;8.81;69.51;99719.81;5095153;28;20024;-85
2020/12/07 06:57:50;;;;;;;13.63;8.07;;;;;;;8.77;70.09;99718.28;5077828;28;20043;-85
2020/12/07 07:00:16;;;;;;;15.15;8.52;;;;;;;9.01;69.25;99724.06;5095841;28;20051;-85
2020/12/07 07:02:46;;;;;;;12.90;7.60;;;;;;;8.55;70.54;99737.50;5078050;28;20036;-84
2020/12/07 07:05:17;;;;;;;18.77;9.38;;;;;;;8.95;69.96;99742.41;5095268;28;20040;-85
2020/12/07 07:07:42;;;;;;;13.15;8.02;;;;;;;8.58;70.09;99744.56;5077036;28;20028;-87
2020/12/07 07:10:09;;;;;;;14.35;8.93;;;;;;;8.74;70.26;99739.16;5094833;28;20124;-82
2020/12/07 07:12:36;;;;;;;11.82;7.60;;;;;;;9.62;67.50;99736.63;5076154;28;20133;-83
2020/12/07 07:15:03;;;;;;;12.50;7.85;;;;;;;8.82;69.02;99743.13;5094500;28;20100;-82
2020/12/07 07:17:30;;;;;;;9.45;6.47;;;;;;;9.10;68.49;99736.09;5094599;28;20039;-80
2020/12/07 07:20:01;;;;;;;14.50;8.00;;;;;;;8.99;69.36;99736.75;5076826;28;20043;-84
2020/12/07 07:22:27;;;;;;;10.35;8.00;;;;;;;8.98;69.50;99744.94;5096813;28;20063;-83
2020/12/07 07:30:12;;;;;;;14.63;8.40;;;;;;;8.70;70.75;99741.16;5115867;28;20116;-83
2020/12/07 07:32:42;;;;;;;11.20;8.07;;;;;;;9.56;68.18;99737.88;5115179;28;20043;-84
2020/12/07 07:35:09;;;;;;;13.75;8.40;;;;;;;9.24;69.00;99729.91;5115530;28;20028;-84
2020/12/07 07:37:35;;;;;;;18.15;8.25;;;;;;;8.95;69.79;99735.22;5097003;28;20038;-83
2020/12/07 07:40:02;;;;;;;;;;;;;;;9.65;67.70;99725.66;5115028;28;20489;-83
2020/12/07 07:42:29;;;;;;;11.63;7.90;;;;;;;9.23;68.55;99730.88;5096360;28;20285;-84
2020/12/07 07:44:55;;;;;;;16.65;8.52;;;;;;;9.01;70.36;99723.16;5096163;28;20047;-84
2020/12/07 07:47:28;;;;;;;11.95;9.73;;;;;;;9.13;69.69;99721.56;5096685;28;20036;-84
2020/12/07 08:17:21;;;;;;;17.75;8.70;;;;;;;9.73;67.47;99729.59;5073750;28;20048;-84
2020/12/07 08:19:49;;;;;;;16.70;10.02;;;;;;;9.38;69.32;99735.34;5055039;28;20052;-84
2020/12/07 08:22:17;;;;;;;12.77;10.32;;;;;;;8.93;70.48;99738.94;5055387;28;20043;-84
2020/12/07 08:24:59;;;;;;;21.38;10.32;;;;;;;9.31;68.68;99742.06;5071851;28;20094;-83
2020/12/07 08:27:32;;;;;;;13.38;10.20;;;;;;;9.10;70.62;99743.34;5055321;28;20533;-83
2020/12/07 08:30:03;;;;;;;17.17;10.07;;;;;;;9.53;68.49;99741.63;5071825;28;20123;-83
2020/12/07 08:32:28;;;;;;;18.55;9.35;;;;;;;9.52;68.65;99747.97;5055099;28;20560;-84
2020/12/07 08:34:54;;;;;;;20.48;9.95;;;;;;;9.43;68.63;99753.09;5072829;28;20036;-83
2020/12/07 08:37:21;;;;;;;10.65;4.05;;;;;;;9.18;68.10;99757.28;5073155;28;20035;-86
2020/12/07 08:39:46;;;;;;;4.03;3.47;;;;;;;9.28;67.36;99752.19;5055646;28;20048;-88
2020/12/07 08:42:12;;;;;;;5.70;3.00;;;;;;;9.27;67.08;99750.44;5056160;28;20520;-86
2020/12/07 08:44:37;;;;;;;4.25;2.30;;;;;;;9.45;66.91;99752.03;5055438;28;20033;-84
2020/12/07 08:47:07;;;;;;;2.88;1.98;;;;;;;9.33;66.86;99752.75;5073078;28;20032;-83
2020/12/07 08:49:32;;;;;;;2.53;1.60;;;;;;;9.05;67.17;99749.00;5054911;28;20400;-84
2020/12/07 08:51:58;;;;;;;5.95;1.83;;;;;;;9.56;66.13;99751.38;5072862;28;20072;-85
2020/12/07 08:54:23;;;;;;;1.88;1.67;;;;;;;8.95;67.11;99748.69;5055010;28;20119;-85
2020/12/07 08:56:48;;;;;;;3.72;1.13;;;;;;;9.13;66.59;99748.56;5073056;28;20032;-85
2020/12/07 08:59:14;;;;;;;2.25;1.20;;;;;;;9.36;65.87;99760.66;5073488;28;20214;-84
2020/12/07 09:01:40;;;;;;;;;;;;;;;9.25;65.86;99755.06;5055594;28;20119;-85
2020/12/07 09:04:08;;;;;;;2.78;1.00;;;;;;;9.17;65.45;99755.53;5055211;28;20378;-84
2020/12/07 09:06:33;;;;;;;2.00;1.00;;;;;;;9.67;64.58;99751.56;5068890;28;20440;-85
2020/12/07 09:08:58;;;;;;;4.43;0.95;;;;;;;9.50;64.10;99765.25;5076250;28;20062;-88
2020/12/07 09:11:24;;;;;;;0.98;0.80;;;;;;;9.83;63.16;99756.91;5098365;28;20044;-86
2020/12/07 09:13:49;;;;;;;1.80;0.95;;;;;;;9.69;63.89;99756.88;5101038;28;20040;-88
2020/12/07 09:16:14;;;;;;;4.13;1.25;;;;;;;10.10;62.38;99759.72;5082446;28;20090;-87
2020/12/07 09:18:40;;;;;;;1.95;1.40;;;;;;;9.96;62.63;99761.56;5094930;28;20055;-86
2020/12/07 09:21:07;;;;;;;7.13;2.92;;;;;;;9.57;64.94;99759.38;5094367;28;20028;-87
2020/12/07 09:23:33;;;;;;;5.22;3.97;;;;;;;8.87;68.53;99759.91;5076560;28;20433;-87
2020/12/07 09:25:58;;;;;;;11.82;5.88;;;;;;;8.67;70.27;99761.06;5075951;28;20063;-86
2020/12/07 09:28:23;;;;;;;10.70;6.00;;;;;;;9.63;67.46;99762.66;5076440;28;20067;-87
2020/12/07 09:30:49;;;;;;;10.98;5.95;;;;;;;9.52;67.32;99766.88;5077789;28;20024;-87
2020/12/07 09:33:14;;;;;;;11.30;6.47;;;;;;;9.50;68.86;99776.91;5079860;28;20093;-85
2020/12/07 09:35:40;;;;;;;17.25;7.38;;;;;;;9.66;67.72;99784.97;5081352;28;20274;-88
2020/12/07 09:38:06;;;;;;;13.85;7.53;;;;;;;9.23;69.50;99788.41;5077558;28;20032;-85
2020/12/07 09:40:31;;;;;;;;;;;;;;;9.12;69.83;99789.97;5078831;28;20036;-86
2020/12/07 09:42:56;;;;;;;11.97;6.70;;;;;;;9.48;69.04;99797.75;5098332;28;20303;-89
2020/12/07 09:45:21;;;;;;;9.37;6.80;;;;;;;9.58;68.57;99788.09;5078136;28;20794;-85
2020/12/07 09:47:47;;;;;;;11.77;7.75;;;;;;;9.74;67.53;99782.66;5096593;28;20357;-88
2020/12/07 09:50:13;;;;;;;11.05;7.57;;;;;;;10.36;65.90;99775.28;5095584;28;20040;-88
2020/12/07 09:52:39;;;;;;;8.02;7.07;;;;;;;10.59;65.35;99781.91;5076642;28;20322;-87
2020/12/07 09:55:05;;;;;;;15.93;8.18;;;;;;;10.45;65.21;99777.41;5076865;28;20638;-86
2020/12/07 09:57:30;;;;;;;;;;;;;;;10.08;66.55;99775.19;5076871;28;20032;-86
2020/12/07 09:59:55;;;;;;;16.50;8.35;;;;;;;10.69;64.99;99768.63;5077679;28;19912;-88
2020/12/07 10:02:21;;;;;;;8.70;7.07;;;;;;;10.33;66.02;99772.75;5078404;28;20053;-88
2020/12/07 10:04:46;;;;;;;11.57;7.18;;;;;;;9.75;67.96;99768.19;5094407;28;20085;-89
2020/12/07 10:07:13;;;;;;;10.43;8.65;;;;;;;9.45;68.53;99770.94;5094253;28;20039;-86
2020/12/07 10:09:38;;;;;;;;;;;;;;;9.74;67.65;99773.69;5075910;28;20115;-87
2020/12/07 10:12:04;;;;;;;11.48;9.02;;;;;;;9.96;67.61;99775.06;5076337;28;20443;-86
2020/12/07 10:14:29;;;;;;;14.93;9.88;;;;;;;9.29;69.26;99776.38;5094056;28;20436;-87
2020/12/07 10:16:56;;;;;;;17.13;11.00;;;;;;;9.58;68.63;99779.16;5076821;28;20476;-88
2020/12/07 10:19:21;;;;;;;21.30;11.45;;;;;;;9.40;69.01;99778.44;5076019;28;20400;-89
2020/12/07 10:21:46;;;;;;;18.17;10.57;;;;;;;9.15;70.40;99787.09;5076762;28;20024;-85
2020/12/07 10:24:12;;;;;;;18.00;11.80;;;;;;;9.48;69.00;99784.25;5076242;28;20032;-86
2020/12/07 10:26:37;;;;;;;18.27;13.00;;;;;;;9.67;68.18;99778.59;5093830;28;20032;-85
2020/12/07 10:29:02;;;;;;;;;;;;;;;9.48;67.96;99786.06;5075376;28;20493;-82
2020/12/07 10:31:28;;;;;;;27.40;14.82;;;;;;;9.44;68.70;99781.84;5092977;28;20006;-81
2020/12/07 10:33:53;;;;;;;28.20;18.13;;;;;;;8.89;70.39;99777.84;5075085;28;20393;-84
2020/12/07 10:36:20;;;;;;;28.98;19.73;;;;;;;8.57;70.98;99769.78;5077230;28;20340;-83
2020/12/07 10:38:46;;;;;;;32.20;20.58;;;;;;;8.67;71.42;99763.75;5078244;28;20039;-84
2020/12/07 10:41:13;;;;;;;36.10;22.17;;;;;;;9.03;70.47;99767.13;5078094;28;20543;-86
2020/12/07 10:43:42;;;;;;;30.73;19.95;;;;;;;8.69;70.15;99771.75;5096477;28;20128;-86
2020/12/07 10:46:08;;;;;;;37.55;22.35;;;;;;;8.75;70.47;99778.66;5095170;28;20039;-84
2020/12/07 10:48:34;;;;;;;36.40;23.63;;;;;;;8.62;70.96;99778.47;5095361;28;20036;-84
2020/12/07 10:50:59;;;;;;;40.13;22.88;;;;;;;8.80;70.96;99782.81;5094987;28;20370;-84
2020/12/07 10:53:25;;;;;;;39.17;24.10;;;;;;;8.99;69.71;99779.06;5096412;28;20092;-87
2020/12/07 10:55:52;;;;;;;29.75;19.90;;;;;;;8.75;70.41;99773.25;5077499;28;20070;-83
2020/12/07 10:58:18;;;;;;;35.55;23.52;;;;;;;8.77;70.69;99774.03;5076947;28;20610;-83
2020/12/07 11:00:43;;;;;;;33.95;22.17;;;;;;;8.37;70.88;99770.88;5076465;28;20036;-83
2020/12/07 11:03:08;;;;;;;32.08;21.92;;;;;;;8.58;70.69;99774.22;5094515;28;20036;-82
2020/12/07 11:05:34;;;;;;;38.47;21.73;;;;;;;8.63;70.54;99781.06;5076075;28;20036;-82
2020/12/07 11:08:01;;;;;;;;;;;;;;;8.79;70.23;99769.44;5095186;28;20040;-83
2020/12/07 11:10:26;;;;;;;35.23;21.53;;;;;;;8.82;70.14;99775.50;5094761;28;19975;-83
2020/12/07 11:13:02;;;;;;;40.37;23.83;;;;;;;8.71;71.07;99764.47;5094543;28;20504;-82
2020/12/07 11:15:28;;;;;;;36.17;23.02;;;;;;;9.00;69.97;99778.97;5076986;28;20295;-84
2020/12/07 11:17:53;;;;;;;38.88;24.63;;;;;;;8.95;70.62;99772.09;5094860;28;20035;-80
2020/12/07 11:20:18;;;;;;;36.28;21.50;;;;;;;8.90;69.83;99776.91;5094348;28;20055;-86
2020/12/07 11:22:44;;;;;;;35.75;21.05;;;;;;;8.83;70.74;99774.56;5094765;28;20039;-83
2020/12/07 11:25:09;;;;;;;33.00;20.77;;;;;;;9.00;69.83;99768.16;5079994;28;20370;-84
2020/12/07 11:27:34;;;;;;;30.63;20.20;;;;;;;9.29;69.76;99772.81;5079204;28;20040;-84
2020/12/07 11:30:00;;;;;;;32.15;19.35;;;;;;;8.97;70.48;99775.59;5096229;28;20032;-85
2020/12/07 11:32:25;;;;;;;30.60;19.13;;;;;;;9.53;68.36;99774.03;5093137;28;20078;-84
2020/12/07 11:34:50;;;;;;;27.40;19.75;;;;;;;9.48;67.84;99764.47;5095901;28;20028;-83
2020/12/07 11:37:16;;;;;;;32.23;20.13;;;;;;;8.89;70.65;99773.31;5116713;28;20082;-82
2020/12/07 11:39:52;;;;;;;33.10;20.67;;;;;;;8.86;70.43;99777.06;5119848;28;20627;-82
2020/12/07 11:42:41;;;;;;;39.65;20.98;;;;;;;8.85;70.22;99782.56;5101567;28;20278;-81
2020/12/07 11:45:07;;;;;;;37.75;23.00;;;;;;;9.14;70.19;99775.44;5100229;28;20028;-82
2020/12/07 11:47:32;;;;;;;39.97;22.83;;;;;;;9.78;67.85;99767.13;5106364;28;20493;-83
2020/12/07 11:50:00;;;;;;;38.63;22.98;;;;;;;9.09;69.75;99765.88;5099169;28;20494;-83
2020/12/07 11:52:27;;;;;;;40.92;25.02;;;;;;;8.71;71.59;99768.97;5079913;28;20089;-82
2020/12/07 11:54:52;;;;;;;42.08;23.60;;;;;;;8.89;69.76;99769.75;5075306;28;20040;-82
2020/12/07 11:57:18;;;;;;;37.25;23.40;;;;;;;8.84;69.96;99767.31;5072799;28;20047;-86
2020/12/07 11:59:43;;;;;;;39.88;23.65;;;;;;;8.93;69.88;99768.63;5090952;28;20389;-84
2020/12/07 12:02:08;;;;;;;41.10;24.80;;;;;;;8.77;69.42;99761.44;5090218;28;20077;-84
2020/12/07 12:04:35;;;;;;;39.75;23.80;;;;;;;8.43;71.05;99771.38;5115679;28;20396;-83